Time;durP1;ratioP1;P1;durP2;ratioP2;P2;SDS_P1;SDS_P2;PMS_P1;PMS_P2;Temp;Humidity;BMP_temperature;BMP_pressure;BME280_temperature;BME280_humidity;BME280_pressure;Samples;Min_cycle;Max_cycle;Signal;HPM_P1;HPM_P2
2022/04/16 00:01:21;;;;;;;15.88;8.07;;;3.90;99.90;;;;;;7318556;32;20307;-59
2022/04/16 00:05:23;;;;;;;11.85;8.38;;;3.90;99.90;;;;;;7320091;32;20119;-58
2022/04/16 00:09:25;;;;;;;11.40;8.35;;;3.80;99.90;;;;;;7313869;32;20115;-58
2022/04/16 00:13:28;;;;;;;12.23;8.35;;;3.80;99.90;;;;;;7320874;32;20179;-59
2022/04/16 00:17:30;;;;;;;12.57;8.45;;;3.80;99.90;;;;;;7315772;32;20115;-59
2022/04/16 00:21:32;;;;;;;11.55;8.65;;;3.80;99.90;;;;;;7318656;32;20648;-59
2022/04/16 00:25:34;;;;;;;13.10;8.80;;;3.80;99.90;;;;;;7315454;32;20107;-59
2022/04/16 00:29:37;;;;;;;13.45;9.25;;;3.80;99.90;;;;;;7318960;32;20283;-59
2022/04/16 00:33:39;;;;;;;12.27;8.70;;;3.80;99.90;;;;;;7319426;32;20116;-59
2022/04/16 00:37:40;;;;;;;10.70;8.10;;;3.80;99.90;;;;;;7311355;32;20129;-58
2022/04/16 00:41:43;;;;;;;14.98;9.68;;;3.60;99.90;;;;;;7319173;32;20277;-58
2022/04/16 00:45:44;;;;;;;14.55;10.15;;;3.60;99.90;;;;;;7315418;32;20351;-57
2022/04/16 00:49:46;;;;;;;15.07;10.30;;;3.60;99.90;;;;;;7303721;32;20228;-57
2022/04/16 00:53:48;;;;;;;15.15;9.93;;;3.60;99.90;;;;;;7319173;32;20638;-58
2022/04/16 00:57:50;;;;;;;12.35;9.02;;;3.60;99.90;;;;;;7314743;32;20261;-59
2022/04/16 01:01:51;;;;;;;12.55;8.30;;;3.60;99.90;;;;;;7315945;32;20108;-58
2022/04/16 01:05:55;;;;;;;14.60;9.00;;;3.60;99.90;;;;;;7299823;32;20107;-58
2022/04/16 01:09:56;;;;;;;14.82;9.55;;;3.50;99.90;;;;;;7317483;32;20114;-59
2022/04/16 01:14:02;;;;;;;12.35;8.73;;;3.40;99.90;;;;;;7301557;32;20225;-58
2022/04/16 01:18:05;;;;;;;13.35;10.23;;;3.50;99.90;;;;;;7317455;32;20162;-58
2022/04/16 01:22:10;;;;;;;14.20;8.75;;;3.40;99.90;;;;;;7315652;32;20115;-57
2022/04/16 01:26:13;;;;;;;13.80;8.73;;;3.40;99.90;;;;;;7320015;32;20320;-58
2022/04/16 01:30:17;;;;;;;14.63;9.23;;;3.40;99.90;;;;;;7319600;32;20111;-58
2022/04/16 01:34:19;;;;;;;14.38;10.07;;;3.40;99.90;;;;;;7319126;32;20146;-58
2022/04/16 01:38:22;;;;;;;13.05;9.90;;;3.40;99.90;;;;;;7320249;32;20466;-59
2022/04/16 01:42:24;;;;;;;16.37;10.65;;;3.40;99.90;;;;;;7314824;32;20394;-59
2022/04/16 01:46:25;;;;;;;13.13;9.60;;;3.30;99.90;;;;;;7318076;32;20150;-58
2022/04/16 01:50:27;;;;;;;12.65;9.70;;;3.30;99.90;;;;;;7318865;32;20143;-58
2022/04/16 01:54:29;;;;;;;17.35;9.15;;;3.30;99.90;;;;;;7316209;32;20143;-58
2022/04/16 01:58:31;;;;;;;14.80;10.20;;;3.20;99.90;;;;;;7317365;32;20107;-58
2022/04/16 02:02:35;;;;;;;13.10;9.85;;;3.20;99.90;;;;;;7312336;32;20221;-59
2022/04/16 02:06:36;;;;;;;12.35;9.48;;;3.20;99.90;;;;;;7313051;32;20648;-58
2022/04/16 02:10:38;;;;;;;14.15;9.45;;;3.10;99.90;;;;;;7308214;32;20567;-58
2022/04/16 02:14:40;;;;;;;15.25;9.07;;;3.20;99.90;;;;;;7317271;32;20129;-59
2022/04/16 02:18:42;;;;;;;16.40;10.45;;;3.10;99.90;;;;;;7315835;32;20122;-57
2022/04/16 02:22:45;;;;;;;15.35;10.38;;;3.10;99.90;;;;;;7318319;32;20171;-58
2022/04/16 02:26:47;;;;;;;13.48;10.05;;;3.10;99.90;;;;;;7317645;32;20138;-60
2022/04/16 02:30:49;;;;;;;13.85;10.93;;;3.10;99.90;;;;;;7313169;32;20218;-60
2022/04/16 02:34:52;;;;;;;18.05;10.70;;;3.10;99.90;;;;;;7312479;32;20149;-57
2022/04/16 02:38:54;;;;;;;17.50;10.60;;;3.00;99.90;;;;;;7317064;32;20845;-58
2022/04/16 02:42:56;;;;;;;17.62;11.02;;;3.00;99.90;;;;;;7316496;32;20697;-58
2022/04/16 02:47:06;;;;;;;15.40;10.68;;;3.10;99.90;;;;;;7315553;32;20146;-58
2022/04/16 02:51:08;;;;;;;18.52;11.20;;;3.10;99.90;;;;;;7312261;32;20149;-59
2022/04/16 02:55:10;;;;;;;15.10;11.15;;;3.00;99.90;;;;;;7317436;32;20111;-59
2022/04/16 02:59:11;;;;;;;19.90;12.13;;;3.10;99.90;;;;;;7316839;32;20123;-59
2022/04/16 03:03:13;;;;;;;17.33;12.27;;;3.00;99.90;;;;;;7317036;32;20111;-59
2022/04/16 03:07:15;;;;;;;20.55;12.30;;;2.90;99.90;;;;;;7316016;32;20145;-60
2022/04/16 03:11:16;;;;;;;21.30;14.57;;;3.00;99.90;;;;;;7317651;32;20103;-59
2022/04/16 03:19:39;;;;;;;20.23;14.75;;;3.00;99.90;;;;;;7314829;32;20169;-59
2022/04/16 03:23:41;;;;;;;23.02;14.57;;;3.00;99.90;;;;;;7312254;32;20111;-59
2022/04/16 03:27:43;;;;;;;22.77;15.20;;;3.10;99.90;;;;;;7314436;32;20345;-58
2022/04/16 03:31:45;;;;;;;19.25;14.27;;;3.10;99.90;;;;;;7312481;32;20111;-58
2022/04/16 03:35:46;;;;;;;18.90;13.70;;;3.10;99.90;;;;;;7313004;32;20115;-59
2022/04/16 03:39:48;;;;;;;20.98;14.60;;;3.10;99.90;;;;;;7314350;32;20129;-58
2022/04/16 03:43:50;;;;;;;20.30;13.98;;;3.00;99.90;;;;;;7317232;32;20520;-57
2022/04/16 03:47:54;;;;;;;20.35;14.15;;;3.00;99.90;;;;;;7312530;32;20730;-57
2022/04/16 03:51:56;;;;;;;21.45;14.07;;;3.00;99.90;;;;;;7316665;32;20645;-60
2022/04/16 04:00:18;;;;;;;21.67;14.35;;;2.90;99.90;;;;;;7310409;32;20688;-57
2022/04/16 04:04:20;;;;;;;22.45;15.13;;;2.80;99.90;;;;;;7303311;32;20194;-58
2022/04/16 04:08:22;;;;;;;19.87;13.07;;;2.90;99.90;;;;;;7317485;32;20882;-58
2022/04/16 04:12:24;;;;;;;22.17;15.15;;;2.80;99.90;;;;;;7312294;32;20154;-58
2022/04/16 04:16:25;;;;;;;21.90;15.00;;;2.80;99.90;;;;;;7315813;32;20122;-58
2022/04/16 04:20:28;;;;;;;21.45;15.32;;;2.80;99.90;;;;;;7302952;32;20119;-60
2022/04/16 04:24:30;;;;;;;18.70;13.73;;;2.70;99.90;;;;;;7314717;32;20444;-58
2022/04/16 04:28:32;;;;;;;23.10;15.23;;;2.70;99.90;;;;;;7314124;32;20111;-58
2022/04/16 04:32:33;;;;;;;22.15;14.48;;;2.70;99.90;;;;;;7308772;32;20667;-58
2022/04/16 04:36:35;;;;;;;23.80;16.52;;;2.70;99.90;;;;;;7310746;32;20247;-60
2022/04/16 04:40:37;;;;;;;24.52;15.80;;;2.80;99.90;;;;;;7314565;32;20237;-60
2022/04/16 04:44:39;;;;;;;24.37;16.10;;;2.80;99.90;;;;;;7319255;32;20226;-58
2022/04/16 04:48:40;;;;;;;24.67;16.33;;;2.80;99.90;;;;;;7318360;32;20126;-59
2022/04/16 04:52:42;;;;;;;21.87;15.88;;;2.80;99.90;;;;;;7316437;32;20555;-58
2022/04/16 04:56:44;;;;;;;21.30;15.05;;;2.80;99.90;;;;;;7319311;32;20254;-58
2022/04/16 05:00:46;;;;;;;23.48;15.75;;;2.90;99.90;;;;;;7320341;32;20527;-59
2022/04/16 05:04:47;;;;;;;23.70;16.15;;;2.90;99.90;;;;;;7319179;32;20154;-60
2022/04/16 05:08:49;;;;;;;27.17;16.37;;;2.90;99.90;;;;;;7314784;32;20103;-59
2022/04/16 05:12:56;;;;;;;25.27;17.25;;;3.00;99.90;;;;;;7319632;32;20107;-60
2022/04/16 05:16:58;;;;;;;29.35;16.05;;;3.00;99.90;;;;;;7315218;32;20195;-58
2022/04/16 05:21:00;;;;;;;23.00;15.80;;;3.10;99.90;;;;;;7318752;32;20496;-59
2022/04/16 05:25:02;;;;;;;26.52;16.92;;;3.10;99.90;;;;;;7315381;32;20147;-58
2022/04/16 05:29:03;;;;;;;31.75;20.88;;;3.20;99.90;;;;;;7321591;32;20203;-59
2022/04/16 05:33:16;;;;;;;39.17;23.55;;;3.40;99.90;;;;;;7319798;32;20126;-58
2022/04/16 05:37:17;;;;;;;63.92;32.63;;;3.90;99.90;;;;;;7320243;32;20216;-58
2022/04/16 05:41:19;;;;;;;78.18;38.35;;;4.70;99.90;;;;;;7317112;32;20122;-58
2022/04/16 05:45:20;;;;;;;69.20;36.00;;;5.30;99.90;;;;;;7319724;32;20104;-57
2022/04/16 05:49:22;;;;;;;65.53;37.55;;;5.60;99.90;;;;;;7317092;32;20789;-60
2022/04/16 05:53:24;;;;;;;67.30;37.55;;;5.70;99.90;;;;;;7316312;32;20190;-58
2022/04/16 05:57:27;;;;;;;62.45;37.00;;;6.00;99.90;;;;;;7314832;32;20859;-60
2022/04/16 06:01:28;;;;;;;61.25;34.33;;;6.30;99.90;;;;;;7314100;32;20107;-60
2022/04/16 06:05:33;;;;;;;56.50;34.53;;;6.50;99.90;;;;;;7317878;32;20117;-59
2022/04/16 06:09:35;;;;;;;49.22;32.58;;;6.60;99.90;;;;;;7319038;32;20425;-58
2022/04/16 06:13:39;;;;;;;47.53;30.75;;;6.70;99.90;;;;;;7314307;32;20447;-58
2022/04/16 06:17:41;;;;;;;50.92;31.27;;;6.90;99.90;;;;;;7318559;32;20198;-59
2022/04/16 06:21:43;;;;;;;46.22;31.12;;;7.00;99.90;;;;;;7319031;32;20122;-60
2022/04/16 06:25:44;;;;;;;42.80;28.52;;;7.10;99.90;;;;;;7317531;32;20178;-59
2022/04/16 06:29:46;;;;;;;43.08;28.15;;;7.20;99.90;;;;;;7318610;32;20261;-59
2022/04/16 06:33:48;;;;;;;41.42;27.77;;;7.40;99.90;;;;;;7317542;32;20127;-60
2022/04/16 06:37:50;;;;;;;37.00;26.70;;;7.50;99.90;;;;;;7318222;32;21253;-62
2022/04/16 06:41:52;;;;;;;35.33;25.10;;;7.70;99.90;;;;;;7316425;32;20095;-61
2022/04/16 06:45:53;;;;;;;30.67;20.33;;;7.80;99.90;;;;;;7319819;32;20179;-61
2022/04/16 06:49:55;;;;;;;29.52;20.58;;;8.00;99.90;;;;;;7309087;32;20126;-62
2022/04/16 06:53:57;;;;;;;29.10;20.60;;;8.00;99.90;;;;;;7318450;32;20485;-60
2022/04/16 06:57:59;;;;;;;24.05;19.45;;;8.10;99.90;;;;;;7320957;32;20138;-62
2022/04/16 07:02:00;;;;;;;25.98;18.17;;;8.10;99.90;;;;;;7314515;32;20122;-60
2022/04/16 07:06:02;;;;;;;26.33;18.77;;;8.20;99.90;;;;;;7317915;32;20154;-61
2022/04/16 07:10:04;;;;;;;28.20;19.67;;;8.20;99.90;;;;;;7307156;32;20396;-62
2022/04/16 07:14:06;;;;;;;27.20;18.67;;;8.20;99.90;;;;;;7313318;32;20129;-62
2022/04/16 07:18:07;;;;;;;25.42;18.37;;;8.30;99.90;;;;;;7315454;32;20132;-61
2022/04/16 07:22:09;;;;;;;26.37;18.52;;;8.40;99.90;;;;;;7316511;32;20127;-62
2022/04/16 07:26:11;;;;;;;24.75;17.27;;;8.50;99.90;;;;;;7317765;32;20662;-60
2022/04/16 07:30:13;;;;;;;22.67;16.85;;;8.70;99.90;;;;;;7313384;32;20210;-62
2022/04/16 07:34:15;;;;;;;18.50;15.38;;;9.20;99.90;;;;;;7312390;32;20666;-60
2022/04/16 07:38:17;;;;;;;22.23;15.13;;;9.20;99.90;;;;;;7315060;32;20139;-61
2022/04/16 07:42:19;;;;;;;18.77;14.73;;;9.50;99.90;;;;;;7306485;32;20138;-62
2022/04/16 07:46:22;;;;;;;16.77;12.57;;;9.80;99.90;;;;;;7314805;32;20111;-62
2022/04/16 07:50:24;;;;;;;17.50;12.65;;;10.10;99.90;;;;;;7316584;32;20194;-57
2022/04/16 07:54:25;;;;;;;17.80;13.43;;;10.20;99.90;;;;;;7313317;32;20178;-62
2022/04/16 07:58:27;;;;;;;18.27;12.98;;;10.10;99.90;;;;;;7314632;32;20099;-62
2022/04/16 08:02:29;;;;;;;16.77;12.85;;;10.30;99.90;;;;;;7316441;32;20107;-64
2022/04/16 08:06:31;;;;;;;18.27;12.35;;;10.50;99.90;;;;;;7310357;32;20104;-60
2022/04/16 08:10:34;;;;;;;17.83;12.90;;;10.70;99.90;;;;;;7317279;32;20191;-60
2022/04/16 08:14:36;;;;;;;15.73;12.63;;;10.80;99.90;;;;;;7318142;32;20126;-60
2022/04/16 08:18:37;;;;;;;17.98;13.32;;;11.20;99.90;;;;;;7318859;32;20242;-61
2022/04/16 08:22:46;;;;;;;16.02;11.65;;;11.80;99.90;;;;;;7319229;32;20226;-61
2022/04/16 08:26:48;;;;;;;16.85;11.82;;;11.90;99.90;;;;;;7320720;32;20100;-60
2022/04/16 08:30:50;;;;;;;15.05;11.48;;;11.80;99.90;;;;;;7319832;32;20151;-60
2022/04/16 08:34:51;;;;;;;15.05;11.38;;;11.90;99.90;;;;;;7321538;32;20107;-62
2022/04/16 08:38:53;;;;;;;11.25;8.75;;;11.90;99.90;;;;;;7319721;32;20530;-61
2022/04/16 08:42:55;;;;;;;13.30;10.48;;;12.00;99.90;;;;;;7318621;32;20155;-61
2022/04/16 08:46:59;;;;;;;14.57;10.18;;;12.20;99.90;;;;;;7321117;32;20721;-62
2022/04/16 08:51:01;;;;;;;12.00;9.65;;;12.60;99.90;;;;;;7319249;32;20223;-61
2022/04/16 08:55:09;;;;;;;12.90;9.40;;;12.80;99.90;;;;;;7316646;32;20185;-57
2022/04/16 08:59:10;;;;;;;10.10;8.80;;;13.70;99.90;;;;;;7316500;32;20491;-62
2022/04/16 09:03:12;;;;;;;8.63;6.62;;;13.70;99.90;;;;;;7317325;32;20134;-60
2022/04/16 09:07:15;;;;;;;7.90;5.43;;;13.80;99.90;;;;;;7319827;32;20187;-61
2022/04/16 09:11:22;;;;;;;8.13;6.30;;;14.10;99.90;;;;;;7320428;32;20103;-63
2022/04/16 09:15:26;;;;;;;7.78;6.72;;;13.80;99.90;;;;;;7319805;32;20270;-61
2022/04/16 09:19:30;;;;;;;8.23;5.62;;;13.50;99.90;;;;;;7320634;32;20104;-61
2022/04/16 09:23:32;;;;;;;7.03;5.10;;;14.30;99.90;;;;;;7320092;32;20182;-63
2022/04/16 09:27:46;;;;;;;7.10;5.37;;;14.10;99.90;;;;;;7320190;32;20242;-61
2022/04/16 09:31:51;;;;;;;6.15;4.70;;;14.40;99.90;;;;;;7322551;32;20198;-61
2022/04/16 09:35:56;;;;;;;8.63;6.22;;;14.40;99.90;;;;;;7318068;32;20126;-62
2022/04/16 09:40:09;;;;;;;8.20;6.55;;;14.30;99.90;;;;;;7329103;32;20123;-62
2022/04/16 09:44:20;;;;;;;7.87;6.07;;;14.80;99.90;;;;;;7319521;32;20145;-61
2022/04/16 09:48:26;;;;;;;9.77;5.40;;;15.30;99.90;;;;;;7317675;32;20807;-61
2022/04/16 09:52:29;;;;;;;8.20;5.72;;;15.00;99.90;;;;;;7316091;32;20157;-62
2022/04/16 09:56:36;;;;;;;8.38;5.35;;;14.80;99.90;;;;;;7312604;32;20103;-62
2022/04/16 10:00:38;;;;;;;6.70;5.30;;;14.60;99.90;;;;;;7312313;32;22180;-61
2022/04/16 10:05:00;;;;;;;5.62;4.32;;;15.10;99.90;;;;;;7319718;32;20129;-60
2022/04/16 10:09:14;;;;;;;7.07;4.68;;;15.70;99.90;;;;;;7322190;32;20129;-63
2022/04/16 10:13:19;;;;;;;8.02;4.72;;;16.20;99.90;;;;;;7323167;32;20181;-61
2022/04/16 10:17:42;;;;;;;6.93;4.80;;;15.70;99.90;;;;;;7323162;32;20171;-61
2022/04/16 10:21:44;;;;;;;7.25;4.62;;;16.10;97.90;;;;;;7322148;32;20290;-62
2022/04/16 10:25:46;;;;;;;6.87;5.22;;;15.80;99.90;;;;;;7321726;32;20222;-61
2022/04/16 10:29:48;;;;;;;6.00;4.90;;;17.00;96.30;;;;;;7322406;32;20133;-60
2022/04/16 10:34:05;;;;;;;9.05;6.30;;;17.10;95.20;;;;;;7315691;32;20111;-61
2022/04/16 10:38:07;;;;;;;7.25;5.60;;;16.30;95.10;;;;;;7321038;32;20107;-60
2022/04/16 10:42:09;;;;;;;7.25;5.50;;;15.80;97.00;;;;;;7319086;32;20118;-60
2022/04/16 10:46:10;;;;;;;7.93;5.55;;;15.80;96.80;;;;;;7313413;32;20103;-61
2022/04/16 10:50:15;;;;;;;8.13;5.72;;;15.60;97.40;;;;;;7314489;32;20894;-63
2022/04/16 10:54:32;;;;;;;7.20;6.37;;;15.70;98.90;;;;;;7314966;32;20625;-61
2022/04/16 10:58:34;;;;;;;8.20;6.07;;;15.50;98.50;;;;;;7322030;32;20238;-64
2022/04/16 11:02:36;;;;;;;7.70;6.10;;;15.20;99.20;;;;;;7323813;32;20112;-61
2022/04/16 11:06:41;;;;;;;7.57;6.00;;;15.00;99.70;;;;;;7321324;32;20165;-61
2022/04/16 11:10:43;;;;;;;9.45;6.57;;;15.10;99.90;;;;;;7319230;32;20127;-63
2022/04/16 11:14:51;;;;;;;7.97;5.68;;;15.00;99.70;;;;;;7321680;32;20223;-60
2022/04/16 11:18:53;;;;;;;8.02;6.12;;;14.70;99.90;;;;;;7321709;32;20122;-63
2022/04/16 11:22:55;;;;;;;7.25;5.97;;;14.80;99.90;;;;;;7321938;32;20126;-63
2022/04/16 11:36:06;;;;;;;6.75;5.62;;;14.80;99.90;;;;;;7304031;32;20126;-60
2022/04/16 11:40:09;;;;;;;8.35;5.90;;;14.90;99.90;;;;;;7319977;32;20249;-62
2022/04/16 11:44:10;;;;;;;8.48;5.57;;;14.80;99.90;;;;;;7320639;32;20257;-61
2022/04/16 11:48:14;;;;;;;8.02;5.72;;;14.90;99.60;;;;;;7320651;32;20153;-61
2022/04/16 11:52:16;;;;;;;7.57;5.18;;;14.80;99.90;;;;;;7322902;32;20123;-61
2022/04/16 11:56:22;;;;;;;8.85;5.50;;;15.00;99.90;;;;;;7326946;32;20541;-61
2022/04/16 12:00:23;;;;;;;7.28;5.18;;;15.10;99.90;;;;;;7324918;32;20123;-59
2022/04/16 12:04:39;;;;;;;7.12;5.18;;;15.20;99.30;;;;;;7325552;32;20199;-60
2022/04/16 12:08:42;;;;;;;6.78;4.72;;;15.20;99.60;;;;;;7323866;32;20630;-62
2022/04/16 12:12:52;;;;;;;7.20;4.68;;;15.30;99.90;;;;;;7318949;32;20226;-61
2022/04/16 12:16:59;;;;;;;8.55;4.35;;;15.30;99.90;;;;;;7317668;32;20174;-61
2022/04/16 12:21:15;;;;;;;6.07;4.68;;;15.20;99.90;;;;;;7318939;32;20742;-63
2022/04/16 12:25:22;;;;;;;10.65;4.95;;;15.30;99.90;;;;;;7316334;32;20651;-61
2022/04/16 12:29:29;;;;;;;6.62;5.00;;;15.10;99.50;;;;;;7315457;32;20332;-57
2022/04/16 12:33:31;;;;;;;8.18;4.55;;;15.10;99.90;;;;;;7321609;32;20111;-56
2022/04/16 12:37:32;;;;;;;6.68;4.15;;;15.30;99.90;;;;;;7319453;32;20234;-56
2022/04/16 12:41:34;;;;;;;8.77;4.70;;;15.30;98.70;;;;;;7306488;32;20501;-57
2022/04/16 12:45:36;;;;;;;5.97;4.62;;;15.30;98.30;;;;;;7320854;32;20542;-57
2022/04/16 12:49:37;;;;;;;7.25;4.28;;;15.20;99.90;;;;;;7316574;32;20401;-56
2022/04/16 12:53:39;;;;;;;5.05;4.15;;;15.30;99.00;;;;;;7314189;32;20107;-56
2022/04/16 12:57:42;;;;;;;5.53;4.22;;;15.40;99.90;;;;;;7324761;32;20234;-56
2022/04/16 13:01:44;;;;;;;5.57;3.90;;;15.50;97.30;;;;;;7319637;32;20496;-56
2022/04/16 13:05:46;;;;;;;4.07;3.45;;;15.70;97.50;;;;;;7324183;32;20707;-56
2022/04/16 13:09:48;;;;;;;4.65;3.20;;;15.60;96.10;;;;;;7323428;32;20125;-56
2022/04/16 13:13:50;;;;;;;4.40;3.20;;;15.50;95.10;;;;;;7316714;32;20216;-56
2022/04/16 13:17:51;;;;;;;5.30;3.45;;;15.60;94.90;;;;;;7313255;32;20108;-56
2022/04/16 13:21:55;;;;;;;6.15;3.53;;;15.50;92.60;;;;;;7319240;32;20156;-58
2022/04/16 13:25:56;;;;;;;4.68;2.97;;;15.40;93.10;;;;;;7316298;32;20111;-56
2022/04/16 13:29:58;;;;;;;6.10;3.08;;;15.80;93.70;;;;;;7316356;32;20124;-56
2022/04/16 13:33:59;;;;;;;4.62;3.37;;;16.00;92.70;;;;;;7325562;32;20119;-56
2022/04/16 13:38:01;;;;;;;5.87;2.95;;;15.80;90.10;;;;;;7319150;32;20534;-56
2022/04/16 13:42:03;;;;;;;3.03;2.10;;;15.80;90.10;;;;;;7321829;32;20115;-56
2022/04/16 13:46:05;;;;;;;5.95;2.85;;;15.70;86.30;;;;;;7318631;32;20213;-56
2022/04/16 13:50:07;;;;;;;4.85;2.58;;;15.80;84.60;;;;;;7314338;32;20115;-56
2022/04/16 13:54:10;;;;;;;3.80;2.20;;;16.00;81.10;;;;;;7314324;32;20556;-55
2022/04/16 13:58:11;;;;;;;2.60;1.60;;;15.70;80.70;;;;;;7313325;32;20107;-56
2022/04/16 14:02:13;;;;;;;7.80;2.05;;;15.90;83.10;;;;;;7312171;32;20107;-56
2022/04/16 14:06:16;;;;;;;3.42;1.80;;;16.20;79.60;;;;;;7314192;32;20816;-56
2022/04/16 14:10:17;;;;;;;2.80;1.90;;;16.10;77.70;;;;;;7316589;32;20095;-56
2022/04/16 14:14:19;;;;;;;3.65;1.87;;;16.40;72.90;;;;;;7315273;32;20194;-55
2022/04/16 14:18:21;;;;;;;3.30;2.05;;;16.40;71.20;;;;;;7320561;32;20220;-56
2022/04/16 14:22:22;;;;;;;2.22;1.67;;;16.30;70.10;;;;;;7314829;32;20438;-56
2022/04/16 14:26:24;;;;;;;2.62;1.70;;;16.30;66.50;;;;;;7316324;32;20605;-56
2022/04/16 14:30:26;;;;;;;4.07;1.80;;;16.50;70.90;;;;;;7316450;32;20118;-57
2022/04/16 14:34:28;;;;;;;4.28;1.50;;;16.60;68.60;;;;;;7318302;32;20099;-56
2022/04/16 14:38:32;;;;;;;3.95;1.45;;;16.60;65.60;;;;;;7318154;32;20099;-56
2022/04/16 14:42:34;;;;;;;3.12;1.40;;;16.40;64.30;;;;;;7309532;32;20096;-56
2022/04/16 14:46:36;;;;;;;2.22;1.35;;;16.40;62.80;;;;;;7311823;32;20197;-55
2022/04/16 14:50:38;;;;;;;3.92;1.60;;;16.50;60.20;;;;;;7311306;32;20686;-60
2022/04/16 14:54:39;;;;;;;2.35;1.27;;;16.40;59.70;;;;;;7319263;32;20501;-60
2022/04/16 14:59:03;;;;;;;1.95;1.20;;;16.50;58.70;;;;;;7321475;32;20734;-60
2022/04/16 15:03:05;;;;;;;1.85;1.10;;;15.90;58.70;;;;;;7321639;32;20111;-61
2022/04/16 15:07:07;;;;;;;2.60;1.00;;;15.70;63.60;;;;;;7322049;32;20100;-60
2022/04/16 15:11:08;;;;;;;2.28;1.20;;;15.90;60.30;;;;;;7321855;32;20103;-60
2022/04/16 15:15:11;;;;;;;2.40;1.17;;;15.50;58.90;;;;;;7321976;32;20512;-61
2022/04/16 15:19:13;;;;;;;3.50;1.10;;;15.50;57.90;;;;;;7321040;32;20107;-62
2022/04/16 15:23:14;;;;;;;2.03;0.85;;;15.60;59.50;;;;;;7323361;32;20130;-63
2022/04/16 15:27:16;;;;;;;2.62;1.00;;;15.60;59.90;;;;;;7321730;32;20620;-63
2022/04/16 15:31:18;;;;;;;1.73;0.93;;;15.50;57.60;;;;;;7321929;32;20126;-61
2022/04/16 15:35:23;;;;;;;3.75;1.33;;;15.50;57.80;;;;;;7318545;32;20214;-62
2022/04/16 15:39:26;;;;;;;3.92;1.30;;;15.40;55.70;;;;;;7320785;32;20099;-62
2022/04/16 15:43:27;;;;;;;1.65;0.93;;;15.40;57.90;;;;;;7321352;32;20104;-61
2022/04/16 15:47:29;;;;;;;1.42;1.00;;;15.50;57.80;;;;;;7315350;32;20151;-61
2022/04/16 15:51:31;;;;;;;3.03;1.00;;;15.50;56.70;;;;;;7321621;32;20118;-60
2022/04/16 15:55:32;;;;;;;1.87;1.17;;;15.50;56.20;;;;;;7316995;32;20186;-61
2022/04/16 15:59:35;;;;;;;2.42;0.82;;;15.50;55.40;;;;;;7311157;32;20222;-57
2022/04/16 16:03:38;;;;;;;1.12;0.77;;;15.20;54.70;;;;;;7317721;32;20547;-58
2022/04/16 16:07:41;;;;;;;0.95;0.60;;;15.20;55.10;;;;;;7315920;32;20186;-58
2022/04/16 16:11:43;;;;;;;2.33;0.80;;;15.20;55.50;;;;;;7314248;32;20127;-62
2022/04/16 16:15:44;;;;;;;1.02;0.60;;;15.20;54.20;;;;;;7317830;32;20104;-62
2022/04/16 16:19:47;;;;;;;1.70;0.70;;;15.00;52.70;;;;;;7317844;32;20560;-63
2022/04/16 16:23:49;;;;;;;1.35;0.93;;;14.90;54.40;;;;;;7318267;32;20756;-62
2022/04/16 16:27:50;;;;;;;3.78;1.20;;;15.00;53.70;;;;;;7318681;32;20114;-62
2022/04/16 16:31:52;;;;;;;1.58;0.90;;;14.80;55.60;;;;;;7320236;32;20637;-61
2022/04/16 16:35:54;;;;;;;1.92;1.00;;;14.80;54.30;;;;;;7319638;32;20324;-61
2022/04/16 16:39:55;;;;;;;1.77;0.90;;;14.80;54.10;;;;;;7323188;32;20099;-61
2022/04/16 16:43:58;;;;;;;2.05;1.00;;;14.70;54.60;;;;;;7319111;32;20155;-61
2022/04/16 16:47:59;;;;;;;2.03;0.95;;;14.60;54.40;;;;;;7320357;32;20108;-62
2022/04/16 16:52:01;;;;;;;2.87;0.88;;;14.50;54.40;;;;;;7317612;32;20754;-63
2022/04/16 16:56:03;;;;;;;2.22;0.90;;;14.50;55.80;;;;;;7320497;32;20134;-61
2022/04/16 17:00:07;;;;;;;2.10;0.90;;;14.40;56.20;;;;;;7319898;32;20250;-61
2022/04/16 17:08:29;;;;;;;2.25;1.10;;;14.30;57.30;;;;;;7321663;32;20096;-63
2022/04/16 17:12:31;;;;;;;2.08;1.20;;;14.20;58.30;;;;;;7320187;32;20091;-60
2022/04/16 17:20:53;;;;;;;2.50;1.20;;;14.00;57.40;;;;;;7320255;32;20620;-60
2022/04/16 17:24:55;;;;;;;3.03;1.37;;;14.00;58.00;;;;;;7320302;32;20181;-62
2022/04/16 17:28:56;;;;;;;1.50;1.10;;;13.80;57.50;;;;;;7317502;32;20205;-61
2022/04/16 17:32:58;;;;;;;1.98;1.20;;;13.70;58.30;;;;;;7318253;32;20523;-61
2022/04/16 17:37:00;;;;;;;2.08;1.12;;;13.60;58.80;;;;;;7320555;32;20104;-60
2022/04/16 17:41:02;;;;;;;3.47;1.20;;;13.40;59.60;;;;;;7320627;32;20656;-62
2022/04/16 17:45:04;;;;;;;3.70;0.98;;;13.30;60.20;;;;;;7318887;32;20241;-61
2022/04/16 17:49:06;;;;;;;2.50;1.15;;;13.10;63.00;;;;;;7318016;32;20209;-62
2022/04/16 17:53:08;;;;;;;4.30;1.25;;;13.00;62.00;;;;;;7318035;32;20104;-60
2022/04/16 17:57:10;;;;;;;2.90;1.17;;;13.10;62.80;;;;;;7319067;32;20586;-62
2022/04/16 18:01:12;;;;;;;2.20;1.00;;;13.00;63.20;;;;;;7316493;32;20127;-61
2022/04/16 18:05:14;;;;;;;2.20;1.00;;;12.90;64.40;;;;;;7314950;32;20134;-60
2022/04/16 18:09:17;;;;;;;2.83;1.40;;;12.80;62.90;;;;;;7314080;32;20162;-61
2022/04/16 18:13:19;;;;;;;3.15;1.20;;;12.60;64.00;;;;;;7314662;32;20099;-61
2022/04/16 18:17:21;;;;;;;3.05;1.20;;;12.50;63.00;;;;;;7317851;32;20182;-62
2022/04/16 18:21:24;;;;;;;1.83;1.30;;;12.50;64.50;;;;;;7319328;32;20169;-62
2022/04/16 18:25:26;;;;;;;2.87;1.20;;;12.40;62.90;;;;;;7312344;32;20219;-64
2022/04/16 18:29:27;;;;;;;2.92;0.93;;;12.40;62.30;;;;;;7318144;32;20099;-63
2022/04/16 18:33:29;;;;;;;2.33;1.20;;;12.30;62.70;;;;;;7317103;32;20125;-61
2022/04/16 18:37:31;;;;;;;3.08;1.30;;;12.20;61.70;;;;;;7316476;32;20835;-64
2022/04/16 18:41:34;;;;;;;4.00;1.60;;;12.10;62.80;;;;;;7319226;32;20225;-63
2022/04/16 18:45:36;;;;;;;4.03;1.58;;;11.90;66.40;;;;;;7317265;32;20103;-60
2022/04/16 18:49:37;;;;;;;2.75;1.33;;;11.80;65.70;;;;;;7313937;32;20111;-62
2022/04/16 18:53:40;;;;;;;2.90;1.23;;;11.60;66.90;;;;;;7313710;32;20137;-61
2022/04/16 18:57:41;;;;;;;4.15;1.30;;;11.50;68.00;;;;;;7318470;32;20100;-61
2022/04/16 19:10:26;;;;;;;4.65;1.62;;;11.20;69.40;;;;;;7317707;32;20341;-60
2022/04/16 19:14:28;;;;;;;4.72;2.08;;;11.10;68.90;;;;;;7314779;32;20104;-61
2022/04/16 19:18:31;;;;;;;3.85;1.62;;;11.10;67.70;;;;;;7312877;32;20142;-59
2022/04/16 19:22:33;;;;;;;5.78;2.22;;;11.00;69.10;;;;;;7315417;32;20194;-62
2022/04/16 19:26:34;;;;;;;3.10;2.00;;;10.90;69.10;;;;;;7316447;32;20219;-59
2022/04/16 19:30:37;;;;;;;3.58;2.12;;;10.80;69.10;;;;;;7315002;32;20135;-61
2022/04/16 19:34:39;;;;;;;6.00;2.83;;;10.70;70.60;;;;;;7318254;32;20153;-61
2022/04/16 19:38:41;;;;;;;5.62;2.75;;;10.70;67.70;;;;;;7316281;32;20103;-61
2022/04/16 19:42:43;;;;;;;4.87;2.45;;;10.60;69.00;;;;;;7318525;32;20103;-60
2022/04/16 19:46:44;;;;;;;4.68;2.33;;;10.50;71.00;;;;;;7318023;32;20103;-59
2022/04/16 19:50:46;;;;;;;5.37;2.87;;;10.40;74.10;;;;;;7316593;32;20186;-60
2022/04/16 19:54:48;;;;;;;7.62;3.28;;;10.30;75.80;;;;;;7316059;32;21470;-58
2022/04/16 19:58:50;;;;;;;12.25;3.85;;;10.20;76.20;;;;;;7316160;32;20237;-59
2022/04/16 20:02:52;;;;;;;7.97;3.40;;;10.00;79.40;;;;;;7314729;32;20803;-60
2022/04/16 20:06:53;;;;;;;5.68;3.17;;;9.80;86.10;;;;;;7317252;32;20118;-59
2022/04/16 20:10:55;;;;;;;6.82;3.90;;;9.70;81.50;;;;;;7315023;32;20275;-60
2022/04/16 20:14:58;;;;;;;6.82;4.62;;;9.70;81.30;;;;;;7320479;32;20191;-61
2022/04/16 20:19:00;;;;;;;8.98;4.78;;;9.70;85.30;;;;;;7320048;32;20753;-62
2022/04/16 20:23:06;;;;;;;9.82;5.35;;;9.50;83.00;;;;;;7320000;32;20581;-60
2022/04/16 20:27:08;;;;;;;8.20;5.75;;;9.50;84.00;;;;;;7321165;32;20216;-59
2022/04/16 20:31:10;;;;;;;11.63;6.75;;;9.40;84.10;;;;;;7317780;32;20125;-59
2022/04/16 20:35:12;;;;;;;9.60;6.70;;;9.40;83.30;;;;;;7322612;32;20535;-59
2022/04/16 20:39:14;;;;;;;9.82;6.80;;;9.40;81.70;;;;;;7318720;32;20127;-59
2022/04/16 20:47:35;;;;;;;11.27;7.82;;;9.50;80.70;;;;;;7316371;32;20190;-59
2022/04/16 20:55:58;;;;;;;13.82;8.50;;;9.40;84.50;;;;;;7316982;32;20186;-59
2022/04/16 20:59:59;;;;;;;14.05;8.60;;;9.30;86.20;;;;;;7318741;32;20132;-60
2022/04/16 21:04:01;;;;;;;14.27;9.77;;;9.10;87.90;;;;;;7316543;32;20137;-60
2022/04/16 21:08:03;;;;;;;13.88;8.27;;;9.00;89.10;;;;;;7313441;32;20133;-60
2022/04/16 21:12:05;;;;;;;15.38;9.20;;;9.00;88.70;;;;;;7316021;32;20139;-59
2022/04/16 21:16:06;;;;;;;17.08;8.43;;;8.80;91.40;;;;;;7325327;32;20130;-61
2022/04/16 21:20:09;;;;;;;15.25;10.77;;;8.70;93.60;;;;;;7310692;32;20111;-60
2022/04/16 21:24:10;;;;;;;13.10;9.52;;;8.30;99.90;;;;;;7317887;32;20138;-60
2022/04/16 21:28:12;;;;;;;16.08;12.57;;;7.90;99.90;;;;;;7320335;32;20139;-62
2022/04/16 21:32:14;;;;;;;19.05;15.15;;;7.60;99.90;;;;;;7310733;32;20115;-59
2022/04/16 21:36:16;;;;;;;13.75;8.77;;;7.30;99.90;;;;;;7318838;32;20203;-60
2022/04/16 21:40:18;;;;;;;13.07;7.90;;;7.10;99.90;;;;;;7316198;32;20226;-61